createdAt,value
2019-02-12T00:01:02.875Z,15.70
2019-02-12T00:03:31.557Z,10.10
2019-02-12T00:06:00.150Z,13.73
2019-02-12T00:08:28.743Z,9.97
2019-02-12T00:10:57.355Z,11.53
2019-02-12T00:13:45.288Z,7.63
2019-02-12T00:16:14.236Z,10.43
2019-02-12T00:18:42.956Z,8.63
2019-02-12T00:21:11.539Z,9.60
2019-02-12T00:23:40.121Z,7.30
2019-02-12T00:26:08.786Z,11.70
2019-02-12T00:28:37.386Z,11.87
2019-02-12T00:31:05.980Z,6.33
2019-02-12T00:33:34.551Z,16.37
2019-02-12T00:36:03.151Z,9.53
2019-02-12T00:38:31.980Z,17.37
2019-02-12T00:41:00.568Z,14.27
2019-02-12T00:43:29.183Z,11.90
2019-02-12T00:45:57.767Z,5.90
2019-02-12T00:48:26.351Z,18.17
2019-02-12T00:50:54.920Z,15.20
2019-02-12T00:53:23.495Z,9.77
2019-02-12T00:55:52.104Z,14.80
2019-02-12T00:58:20.761Z,17.97
2019-02-12T01:00:52.170Z,16.83
2019-02-12T01:03:20.785Z,18.27
2019-02-12T01:05:49.608Z,6.83
2019-02-12T01:08:18.191Z,9.73
2019-02-12T01:10:46.931Z,13.20
2019-02-12T01:13:15.959Z,6.73
2019-02-12T01:15:44.551Z,8.73
2019-02-12T01:18:13.172Z,8.90
2019-02-12T01:20:41.828Z,17.67
2019-02-12T01:23:10.407Z,8.97
2019-02-12T01:25:39.008Z,15.90
2019-02-12T01:28:07.569Z,7.90
2019-02-12T01:30:36.513Z,14.27
2019-02-12T01:33:05.095Z,10.47
2019-02-12T01:35:33.698Z,9.77
2019-02-12T01:38:02.290Z,10.17
2019-02-12T01:40:31.196Z,7.43
2019-02-12T01:42:59.767Z,22.63
2019-02-12T01:45:28.380Z,13.70
2019-02-12T01:47:56.966Z,6.67
2019-02-12T01:50:25.600Z,10.60
2019-02-12T01:52:54.197Z,9.97
2019-02-12T01:55:22.804Z,13.37
2019-02-12T01:57:51.367Z,10.70
2019-02-12T02:00:19.958Z,9.93
2019-02-12T02:02:48.672Z,12.30
2019-02-12T02:05:17.309Z,12.17
2019-02-12T02:07:45.979Z,9.87
2019-02-12T02:10:16.789Z,10.27
2019-02-12T02:12:45.455Z,15.70
2019-02-12T02:15:14.160Z,10.37
2019-02-12T02:17:42.797Z,7.67
2019-02-12T02:20:11.976Z,9.33
2019-02-12T02:22:40.576Z,16.33
2019-02-12T02:25:09.726Z,14.60
2019-02-12T02:27:38.307Z,16.93
2019-02-12T02:30:08.394Z,12.60
2019-02-12T02:32:36.977Z,13.77
2019-02-12T02:35:05.660Z,12.70
2019-02-12T02:37:34.299Z,14.27
2019-02-12T02:40:02.905Z,12.63
2019-02-12T02:42:31.500Z,10.57
2019-02-12T02:45:00.198Z,19.47
2019-02-12T02:47:28.867Z,26.43
2019-02-12T02:49:57.451Z,22.17
2019-02-12T02:52:26.015Z,15.03
2019-02-12T02:54:54.668Z,15.23
2019-02-12T02:57:23.262Z,14.97
2019-02-12T02:59:51.864Z,9.30
2019-02-12T03:02:20.460Z,19.97
2019-02-12T03:04:51.663Z,13.10
2019-02-12T03:07:20.281Z,16.40
2019-02-12T03:09:49.147Z,8.67
2019-02-12T03:12:17.768Z,5.07
2019-02-12T03:14:46.397Z,15.40
2019-02-12T03:17:15.086Z,9.77
2019-02-12T03:19:43.705Z,8.90
2019-02-12T03:22:12.627Z,9.83
2019-02-12T03:24:41.183Z,10.30
2019-02-12T03:27:09.757Z,8.47
2019-02-12T03:29:38.328Z,8.30
2019-02-12T03:32:07.085Z,25.90
2019-02-12T03:34:35.691Z,11.47
2019-02-12T03:37:04.270Z,12.07
2019-02-12T03:39:32.864Z,9.17
2019-02-12T03:42:01.458Z,12.07
2019-02-12T03:44:30.071Z,8.90
2019-02-12T03:46:58.697Z,21.40
2019-02-12T03:49:27.287Z,13.57
2019-02-12T03:51:55.881Z,11.70
2019-02-12T03:54:24.454Z,7.93
2019-02-12T03:56:53.038Z,8.73
2019-02-12T03:59:21.627Z,11.87
2019-02-12T04:01:50.397Z,13.57
2019-02-12T04:04:19.013Z,13.37
2019-02-12T04:06:47.761Z,16.17
2019-02-12T04:09:16.360Z,7.83
2019-02-12T04:11:44.995Z,8.70
2019-02-12T04:14:13.616Z,11.43
2019-02-12T04:16:42.254Z,16.43
2019-02-12T04:19:10.835Z,16.40
2019-02-12T04:21:39.425Z,13.60
2019-02-12T04:24:08.105Z,14.63
2019-02-12T04:26:37.073Z,10.17
2019-02-12T04:29:05.754Z,11.27
2019-02-12T04:31:34.315Z,6.93
2019-02-12T04:34:02.897Z,12.97
2019-02-12T04:36:31.552Z,12.07
2019-02-12T04:39:00.213Z,11.67
2019-02-12T04:41:28.834Z,13.13
2019-02-12T04:43:57.435Z,15.83
2019-02-12T04:46:26.004Z,12.93
2019-02-12T04:48:54.586Z,17.30
2019-02-12T04:51:23.168Z,12.67
2019-02-12T04:53:51.786Z,15.63
2019-02-12T04:56:20.439Z,15.53
2019-02-12T04:58:49.457Z,12.50
2019-02-12T05:01:18.047Z,23.90
2019-02-12T05:03:46.915Z,18.80
2019-02-12T05:06:15.528Z,15.20
2019-02-12T05:09:20.916Z,12.53
2019-02-12T05:11:52.275Z,13.83
2019-02-12T05:14:20.887Z,24.50
2019-02-12T05:16:49.747Z,17.30
2019-02-12T05:19:18.404Z,10.03
2019-02-12T05:21:47.170Z,11.87
2019-02-12T05:24:15.805Z,17.93
2019-02-12T05:26:44.384Z,19.47
2019-02-12T05:29:12.958Z,15.17
2019-02-12T05:31:41.553Z,20.17
2019-02-12T05:34:29.472Z,26.23
2019-02-12T05:36:58.101Z,24.67
2019-02-12T05:39:26.732Z,17.03
2019-02-12T05:41:55.317Z,13.60
2019-02-12T05:44:23.931Z,20.03
2019-02-12T05:46:52.506Z,17.60
2019-02-12T05:49:21.102Z,20.97
2019-02-12T05:51:52.512Z,9.70
2019-02-12T05:54:21.096Z,8.33
2019-02-12T05:56:50.196Z,10.67
2019-02-12T05:59:18.916Z,12.27
2019-02-12T06:01:47.761Z,12.93
2019-02-12T06:04:16.361Z,11.43
2019-02-12T06:06:44.915Z,7.77
2019-02-12T06:09:13.525Z,18.03
2019-02-12T06:11:42.176Z,12.53
2019-02-12T06:14:11.201Z,13.50
2019-02-12T06:16:39.763Z,8.13
2019-02-12T06:19:08.364Z,17.80
2019-02-12T06:21:36.984Z,17.23
2019-02-12T06:24:05.559Z,20.50
2019-02-12T06:26:34.177Z,13.00
2019-02-12T06:29:02.772Z,23.53
2019-02-12T06:31:31.365Z,19.33
2019-02-12T06:33:59.927Z,9.67
2019-02-12T06:36:28.524Z,13.50
2019-02-12T06:38:57.190Z,15.60
2019-02-12T06:41:25.794Z,15.83
2019-02-12T06:43:54.381Z,26.90
2019-02-12T06:46:22.955Z,18.67
2019-02-12T06:48:51.536Z,23.20
2019-02-12T06:51:20.139Z,18.33
2019-02-12T06:53:48.974Z,24.07
2019-02-12T06:56:17.562Z,31.73
2019-02-12T06:58:46.156Z,24.00
2019-02-12T07:01:14.795Z,28.73
2019-02-12T07:04:16.191Z,34.87
2019-02-12T07:07:13.554Z,34.27
2019-02-12T07:09:54.777Z,31.63
2019-02-12T07:12:58.361Z,25.80
2019-02-12T07:15:37.639Z,16.27
2019-02-12T07:18:54.529Z,28.23
2019-02-12T07:21:45.396Z,26.80
2019-02-12T07:24:38.381Z,29.57
2019-02-12T07:27:50.875Z,30.73
2019-02-12T07:30:59.705Z,34.07
2019-02-12T07:33:55.145Z,23.30
2019-02-12T07:36:54.844Z,36.13
2019-02-12T07:40:07.551Z,22.33
2019-02-12T07:43:08.480Z,26.37
2019-02-12T07:46:23.106Z,18.27
2019-02-12T07:49:23.511Z,27.70
2019-02-12T07:52:16.559Z,28.37
2019-02-12T07:55:11.539Z,39.50
2019-02-12T07:58:39.770Z,34.40
2019-02-12T08:01:38.214Z,25.23
2019-02-12T08:04:33.038Z,34.80
2019-02-12T08:07:27.520Z,19.07
2019-02-12T08:10:41.819Z,29.70
2019-02-12T08:13:46.175Z,25.70
2019-02-12T08:16:40.863Z,21.57
2019-02-12T08:20:09.176Z,35.10
2019-02-12T08:23:26.423Z,14.40
2019-02-12T08:26:11.031Z,26.53
2019-02-12T08:29:33.369Z,32.00
2019-02-12T08:32:13.531Z,25.93
2019-02-12T08:35:57.078Z,33.50
2019-02-12T08:39:05.599Z,29.67
2019-02-12T08:42:25.072Z,20.67
2019-02-12T08:45:06.246Z,23.40
2019-02-12T08:48:14.964Z,19.93
2019-02-12T08:51:06.063Z,17.53
2019-02-12T08:54:15.279Z,31.73
2019-02-12T08:56:54.957Z,13.83
2019-02-12T08:59:42.700Z,16.23
2019-02-12T09:02:29.550Z,23.20
2019-02-12T09:05:50.671Z,23.40
2019-02-12T09:08:53.049Z,18.60
2019-02-12T09:12:09.245Z,18.30
2019-02-12T09:15:02.946Z,15.17
2019-02-12T09:18:13.531Z,13.80
2019-02-12T09:20:50.684Z,17.23
2019-02-12T09:23:49.086Z,24.70
2019-02-12T09:27:00.222Z,24.67
2019-02-12T09:29:58.342Z,20.17
2019-02-12T09:32:52.704Z,23.80
2019-02-12T09:35:29.985Z,20.43
2019-02-12T09:38:34.273Z,19.30
2019-02-12T09:41:25.279Z,28.23
2019-02-12T09:44:43.117Z,10.33
2019-02-12T09:48:20.320Z,16.17
2019-02-12T09:51:15.453Z,17.80
2019-02-12T09:54:14.244Z,15.23
2019-02-12T09:57:08.888Z,22.40
2019-02-12T10:00:17.403Z,15.23
2019-02-12T10:03:22.843Z,21.80
2019-02-12T10:06:32.005Z,12.40
2019-02-12T10:09:41.310Z,10.80
2019-02-12T10:13:03.145Z,18.23
2019-02-12T10:16:04.081Z,20.00
2019-02-12T10:19:09.917Z,10.77
2019-02-12T10:22:41.303Z,11.90
2019-02-12T10:25:33.704Z,12.30
2019-02-12T10:28:53.063Z,11.03
2019-02-12T10:31:48.354Z,11.93
2019-02-12T10:34:20.113Z,18.43
2019-02-12T10:36:51.595Z,8.77
2019-02-12T10:39:20.918Z,8.93
2019-02-12T10:41:49.866Z,9.90
2019-02-12T10:44:19.003Z,7.37
2019-02-12T10:46:49.986Z,8.83
2019-02-12T10:49:19.586Z,9.80
2019-02-12T10:51:51.055Z,7.70
2019-02-12T10:54:27.754Z,7.20
2019-02-12T10:56:50.689Z,10.03
2019-02-12T10:59:19.512Z,10.00
2019-02-12T11:01:48.904Z,7.40
2019-02-12T11:04:21.929Z,6.10
2019-02-12T11:06:50.824Z,6.37
2019-02-12T11:09:19.831Z,4.80
2019-02-12T11:11:49.160Z,6.97
2019-02-12T11:14:18.062Z,6.50
2019-02-12T11:16:50.034Z,7.13
2019-02-12T11:19:18.949Z,8.07
2019-02-12T11:21:50.167Z,8.80
2019-02-12T11:24:21.971Z,8.17
2019-02-12T11:26:50.952Z,6.27
2019-02-12T11:29:19.959Z,8.63
2019-02-12T11:31:50.585Z,7.33
2019-02-12T11:34:19.444Z,9.27
2019-02-12T11:36:51.385Z,10.30
2019-02-12T11:39:20.427Z,8.80
2019-02-12T11:41:49.816Z,8.43
2019-02-12T11:44:19.149Z,7.33
2019-02-12T11:46:51.504Z,7.33
2019-02-12T11:49:20.676Z,7.20
2019-02-12T11:51:53.436Z,7.13
2019-02-12T11:54:22.212Z,5.70
2019-02-12T11:56:51.076Z,5.67
2019-02-12T11:59:19.917Z,4.87
2019-02-12T12:01:49.038Z,6.53
2019-02-12T12:04:18.069Z,4.97
2019-02-12T12:06:49.734Z,4.57
2019-02-12T12:09:18.621Z,4.13
2019-02-12T12:11:47.778Z,3.73
2019-02-12T12:14:16.797Z,5.83
2019-02-12T12:16:49.427Z,4.13
2019-02-12T12:19:18.529Z,4.50
2019-02-12T12:21:50.368Z,5.17
2019-02-12T12:24:20.547Z,4.27
2019-02-12T12:26:52.316Z,4.30
2019-02-12T12:29:21.790Z,3.80
2019-02-12T12:31:50.739Z,8.60
2019-02-12T12:34:24.148Z,5.70
2019-02-12T12:36:56.081Z,4.60
2019-02-12T12:42:14.340Z,5.20
2019-02-12T12:44:43.332Z,5.83
2019-02-12T12:47:13.105Z,3.90
2019-02-12T12:49:44.097Z,7.57
2019-02-12T12:52:12.786Z,5.53
2019-02-12T12:55:00.930Z,6.60
2019-02-12T12:57:29.567Z,8.40
2019-02-12T12:59:58.627Z,4.90
2019-02-12T13:02:27.401Z,8.43
2019-02-12T13:04:56.019Z,8.40
2019-02-12T13:07:25.392Z,6.73
2019-02-12T13:09:54.058Z,9.07
2019-02-12T13:12:22.654Z,5.17
2019-02-12T13:14:51.276Z,8.77
2019-02-12T13:17:20.373Z,5.77
2019-02-12T13:19:49.195Z,10.67
2019-02-12T13:22:17.806Z,6.13
2019-02-12T13:24:46.536Z,22.27
2019-02-12T13:27:15.426Z,7.27
2019-02-12T13:29:44.008Z,12.07
2019-02-12T13:32:12.593Z,5.47
2019-02-12T13:34:41.214Z,11.60
2019-02-12T13:37:09.793Z,5.27
2019-02-12T13:39:38.387Z,8.27
2019-02-12T13:42:07.088Z,6.43
2019-02-12T13:44:35.665Z,10.87
2019-02-12T13:47:04.332Z,8.57
2019-02-12T13:49:32.896Z,10.97
2019-02-12T13:52:01.496Z,10.13
2019-02-12T13:54:30.077Z,5.30
2019-02-12T13:56:58.676Z,9.90
2019-02-12T13:59:27.284Z,7.60
2019-02-12T14:01:55.874Z,6.77
2019-02-12T14:04:24.450Z,12.47
2019-02-12T14:06:53.032Z,9.63
2019-02-12T14:09:21.590Z,11.23
2019-02-12T14:11:50.240Z,6.77
2019-02-12T14:14:19.541Z,7.10
2019-02-12T14:16:48.516Z,10.83
2019-02-12T14:19:17.133Z,11.13
2019-02-12T14:21:45.767Z,7.83
2019-02-12T14:24:14.357Z,13.13
2019-02-12T14:26:42.957Z,8.50
2019-02-12T14:29:11.558Z,7.67
2019-02-12T14:31:40.149Z,14.03
2019-02-12T14:34:08.817Z,14.70
2019-02-12T14:36:37.395Z,9.10
2019-02-12T14:39:06.176Z,7.40
2019-02-12T14:41:38.178Z,11.10
2019-02-12T14:44:06.761Z,7.67
2019-02-12T14:46:35.391Z,9.63
2019-02-12T14:49:03.972Z,6.17
2019-02-12T14:51:32.652Z,8.83
2019-02-12T14:54:01.224Z,7.37
2019-02-12T14:56:29.836Z,11.00
2019-02-12T14:58:58.425Z,11.43
2019-02-12T15:01:26.998Z,6.07
2019-02-12T15:03:55.593Z,6.80
2019-02-12T15:06:24.257Z,11.57
2019-02-12T15:08:52.879Z,12.27
2019-02-12T15:11:21.465Z,8.87
2019-02-12T15:13:50.037Z,6.30
2019-02-12T15:16:18.652Z,9.13
2019-02-12T15:18:47.699Z,14.43
2019-02-12T15:21:16.411Z,8.60
2019-02-12T15:23:45.057Z,18.03
2019-02-12T15:26:13.725Z,8.73
2019-02-12T15:28:44.445Z,8.97
2019-02-12T15:31:13.031Z,8.97
2019-02-12T15:33:41.648Z,9.53
2019-02-12T15:36:10.207Z,10.30
2019-02-12T15:38:58.316Z,9.33
2019-02-12T15:41:27.086Z,12.57
2019-02-12T15:43:55.685Z,7.60
2019-02-12T15:46:24.266Z,7.87
2019-02-12T15:48:52.921Z,7.30
2019-02-12T15:51:21.533Z,7.57
2019-02-12T15:53:50.118Z,7.43
2019-02-12T15:56:18.695Z,7.80
2019-02-12T15:58:47.357Z,6.07
2019-02-12T16:01:15.916Z,9.93
2019-02-12T16:03:44.497Z,5.93
2019-02-12T16:06:13.154Z,6.33
2019-02-12T16:08:41.724Z,6.87
2019-02-12T16:11:10.295Z,5.73
2019-02-12T16:13:38.892Z,5.40
2019-02-12T16:16:08.150Z,5.37
2019-02-12T16:18:37.791Z,7.30
2019-02-12T16:21:06.376Z,7.67
2019-02-12T16:23:35.047Z,3.47
2019-02-12T16:26:03.782Z,8.13
2019-02-12T16:28:32.353Z,5.23
2019-02-12T16:31:00.956Z,8.50
2019-02-12T16:33:29.580Z,12.13
2019-02-12T16:35:58.144Z,5.10
2019-02-12T16:38:26.720Z,4.97
2019-02-12T16:40:55.341Z,7.00
2019-02-12T16:43:23.956Z,9.00
2019-02-12T16:46:08.989Z,6.67
2019-02-12T16:48:37.570Z,3.83
2019-02-12T16:51:06.140Z,8.77
2019-02-12T16:53:34.737Z,10.00
2019-02-12T16:56:08.330Z,4.73
2019-02-12T16:58:33.741Z,4.67
2019-02-12T17:01:02.388Z,5.90
2019-02-12T17:03:30.965Z,4.37
2019-02-12T17:06:00.831Z,7.50
2019-02-12T17:08:29.406Z,4.67
2019-02-12T17:10:58.020Z,9.83
2019-02-12T17:13:38.273Z,6.33
2019-02-12T17:19:54.213Z,5.60
2019-02-12T17:20:37.315Z,6.03
2019-02-12T17:22:29.990Z,6.30
2019-02-12T17:24:58.572Z,7.40
2019-02-12T17:27:36.199Z,8.67
2019-02-12T17:30:00.724Z,9.27
2019-02-12T17:32:29.371Z,9.27
2019-02-12T17:35:01.490Z,11.97
2019-02-12T17:37:28.282Z,8.03
2019-02-12T17:39:56.973Z,5.63
2019-02-12T17:42:25.865Z,8.93
2019-02-12T17:44:54.452Z,11.17
2019-02-12T17:47:23.049Z,19.47
2019-02-12T17:49:51.638Z,13.37
2019-02-12T17:52:20.259Z,21.27
2019-02-12T17:54:49.137Z,8.73
2019-02-12T17:57:17.748Z,16.73
2019-02-12T17:59:46.402Z,17.20
2019-02-12T18:02:15.028Z,11.80
2019-02-12T18:04:51.506Z,9.13
2019-02-12T18:07:20.149Z,9.03
2019-02-12T18:09:48.859Z,12.07
2019-02-12T18:12:17.511Z,16.07
2019-02-12T18:14:46.189Z,18.53
2019-02-12T18:17:14.789Z,14.20
2019-02-12T18:19:43.400Z,8.97
2019-02-12T18:22:12.033Z,14.77
2019-02-12T18:24:40.634Z,7.93
2019-02-12T18:27:12.260Z,13.13
2019-02-12T18:29:40.868Z,11.10
2019-02-12T18:32:09.456Z,15.27
2019-02-12T18:34:38.032Z,7.83
2019-02-12T18:37:06.613Z,9.87
2019-02-12T18:39:35.469Z,8.37
2019-02-12T18:42:04.110Z,10.93
2019-02-12T18:44:32.768Z,11.60
2019-02-12T18:47:01.373Z,8.83
2019-02-12T18:49:30.265Z,11.83
2019-02-12T18:51:58.923Z,19.67
2019-02-12T18:54:27.518Z,7.00
2019-02-12T18:56:56.124Z,9.43
2019-02-12T18:59:24.731Z,14.37
2019-02-12T19:01:53.355Z,10.30
2019-02-12T19:04:22.035Z,10.03
2019-02-12T19:06:50.683Z,17.90
2019-02-12T19:09:19.315Z,9.50
2019-02-12T19:11:54.388Z,14.10
2019-02-12T19:14:21.556Z,22.77
2019-02-12T19:16:50.291Z,11.40
2019-02-12T19:19:18.864Z,8.40
2019-02-12T19:21:47.604Z,8.40
2019-02-12T19:24:16.244Z,16.30
2019-02-12T19:26:49.784Z,9.87
2019-02-12T19:29:15.157Z,16.13
2019-02-12T19:31:43.743Z,9.00
2019-02-12T19:34:12.329Z,11.70
2019-02-12T19:36:40.922Z,8.53
2019-02-12T19:39:09.585Z,6.30
2019-02-12T19:41:38.143Z,7.40
2019-02-12T19:44:07.074Z,12.80
2019-02-12T19:46:35.648Z,5.73
2019-02-12T19:49:04.240Z,11.50
2019-02-12T19:51:32.828Z,8.50
2019-02-12T19:54:01.440Z,10.17
2019-02-12T19:56:30.045Z,15.03
2019-02-12T19:58:58.629Z,5.53
2019-02-12T20:01:27.208Z,7.07
2019-02-12T20:03:55.876Z,8.10
2019-02-12T20:06:24.454Z,7.33
2019-02-12T20:08:53.366Z,7.27
2019-02-12T20:11:21.966Z,9.50
2019-02-12T20:13:50.653Z,13.07
2019-02-12T20:16:19.301Z,8.40
2019-02-12T20:18:47.979Z,11.83
2019-02-12T20:21:16.685Z,7.60
2019-02-12T20:23:45.368Z,9.30
2019-02-12T20:26:33.509Z,7.00
2019-02-12T20:29:02.093Z,12.43
2019-02-12T20:31:31.974Z,10.53
2019-02-12T20:34:00.773Z,9.60
2019-02-12T20:36:29.367Z,16.17
2019-02-12T20:38:58.248Z,12.23
2019-02-12T20:41:27.145Z,11.33
2019-02-12T20:43:55.857Z,15.37
2019-02-12T20:46:24.452Z,14.60
2019-02-12T20:48:53.043Z,19.57
2019-02-12T20:51:21.655Z,10.10
2019-02-12T20:53:50.376Z,10.90
2019-02-12T20:56:18.973Z,12.83
2019-02-12T20:58:50.128Z,10.87
2019-02-12T21:01:18.763Z,19.23
2019-02-12T21:03:47.412Z,8.07
2019-02-12T21:06:16.057Z,12.47
2019-02-12T21:08:45.005Z,11.27
2019-02-12T21:11:13.666Z,11.90
2019-02-12T21:13:42.459Z,9.90
2019-02-12T21:16:11.105Z,17.33
2019-02-12T21:18:39.692Z,13.37
2019-02-12T21:21:08.377Z,9.03
2019-02-12T21:23:36.939Z,9.80
2019-02-12T21:26:05.530Z,11.27
2019-02-12T21:28:34.219Z,13.60
2019-02-12T21:31:02.838Z,11.67
2019-02-12T21:33:31.433Z,8.50
2019-02-12T21:36:00.030Z,7.57
2019-02-12T21:38:28.670Z,10.57
2019-02-12T21:40:57.244Z,11.77
2019-02-12T21:43:25.833Z,9.20
2019-02-12T21:45:54.416Z,10.13
2019-02-12T21:48:23.063Z,10.83
2019-02-12T21:50:51.645Z,6.93
2019-02-12T21:53:20.240Z,11.17
2019-02-12T21:55:49.007Z,7.77
2019-02-12T21:58:17.633Z,9.60
2019-02-12T22:00:46.206Z,11.53
2019-02-12T22:03:14.882Z,9.63
2019-02-12T22:05:47.315Z,9.23
2019-02-12T22:08:15.897Z,8.67
2019-02-12T22:10:46.328Z,8.50
2019-02-12T22:13:16.291Z,10.80
2019-02-12T22:15:44.899Z,10.70
2019-02-12T22:18:13.488Z,12.53
2019-02-12T22:20:42.109Z,12.00
2019-02-12T22:23:10.788Z,8.93
2019-02-12T22:25:40.741Z,8.87
2019-02-12T22:28:09.288Z,12.60
2019-02-12T22:30:37.870Z,8.33
2019-02-12T22:33:06.447Z,13.80
2019-02-12T22:35:35.327Z,7.63
2019-02-12T22:38:04.332Z,22.50
2019-02-12T22:40:33.333Z,12.97
2019-02-12T22:43:01.936Z,7.73
2019-02-12T22:45:30.498Z,7.47
2019-02-12T22:47:59.069Z,7.90
2019-02-12T22:50:27.704Z,8.30
2019-02-12T22:52:56.529Z,6.37
2019-02-12T22:55:25.107Z,8.63
2019-02-12T22:57:53.977Z,8.93
2019-02-12T23:00:46.153Z,9.20
2019-02-12T23:03:14.764Z,7.67
2019-02-12T23:05:44.696Z,12.00
2019-02-12T23:08:13.271Z,7.80
2019-02-12T23:10:42.181Z,7.77
2019-02-12T23:13:10.760Z,9.20
2019-02-12T23:15:39.360Z,8.77
2019-02-12T23:18:07.939Z,13.97
2019-02-12T23:20:36.507Z,13.70
2019-02-12T23:23:05.081Z,8.33
2019-02-12T23:25:33.757Z,11.80
2019-02-12T23:28:02.356Z,13.67
2019-02-12T23:30:30.951Z,9.23
2019-02-12T23:32:59.533Z,8.20
2019-02-12T23:35:28.121Z,10.90
2019-02-12T23:37:56.774Z,12.83
2019-02-12T23:40:25.469Z,10.73
2019-02-12T23:42:54.072Z,9.77
2019-02-12T23:45:22.703Z,14.73
2019-02-12T23:47:51.289Z,13.87
2019-02-12T23:50:19.898Z,11.90
2019-02-12T23:52:48.624Z,10.17
2019-02-12T23:55:17.217Z,9.57
2019-02-12T23:57:45.788Z,14.23
